JNB weather

OR Tambo International Airport
Johannesburg, Gauteng, South Africa

Public forecast

Using degrees Celsius for public forecast. Weather courtesy of forecast.io.

Current aviation weather report (METAR) for OR Tambo International Airport

Retrieved 2020/05/29 20:00 UTC (13 minutes ago):

FAOR 292000Z 20006KT CAVOK 09/M03 Q1026 NOSIG

Aviation forecast (TAF) for OR Tambo International Airport

Retrieved 2020/05/29 18:00 UTC (2 hours ago):

TAF FAOR 291600Z 2918/3024 19009KT CAVOK TX20/3013Z TN06/3004Z BECMG 2922/2924 VRB03KT